Time;durP1;ratioP1;P1;durP2;ratioP2;P2;SDS_P1;SDS_P2;PMS_P1;PMS_P2;Temp;Humidity;BMP_temperature;BMP_pressure;BME280_temperature;BME280_humidity;BME280_pressure;Samples;Min_cycle;Max_cycle;Signal;HPM_P1;HPM_P2
2021/08/07 00:01:24;;;;;;;2.90;1.40;;;;;;;13.89;74.21;94920.00;5059273;28;20187;-77
2021/08/07 00:03:50;;;;;;;1.83;1.13;;;;;;;13.86;74.53;94919.53;5076017;28;20164;-77
2021/08/07 00:06:15;;;;;;;4.07;1.30;;;;;;;13.79;74.68;94924.69;5059266;28;20192;-77
2021/08/07 00:08:41;;;;;;;1.60;0.97;;;;;;;13.77;75.47;94921.44;5075880;28;20179;-77
2021/08/07 00:11:06;;;;;;;1.77;1.30;;;;;;;13.76;75.08;94911.19;5075959;28;20185;-77
2021/08/07 00:13:32;;;;;;;2.37;1.60;;;;;;;13.76;74.58;94904.16;5075779;28;20183;-77
2021/08/07 00:15:57;;;;;;;1.70;1.13;;;;;;;13.73;74.95;94896.69;5076032;28;20242;-77
2021/08/07 00:18:22;;;;;;;2.20;1.47;;;;;;;13.72;74.86;94887.25;5075757;28;20578;-77
2021/08/07 00:20:48;;;;;;;2.07;1.20;;;;;;;13.70;74.98;94894.47;5075641;28;20204;-77
2021/08/07 00:23:13;;;;;;;2.73;1.30;;;;;;;13.70;74.77;94886.66;5075517;28;20176;-77
2021/08/07 00:25:38;;;;;;;2.43;1.30;;;;;;;13.72;75.02;94884.66;5058910;28;20573;-77
2021/08/07 00:28:04;;;;;;;2.43;1.10;;;;;;;13.69;74.94;94892.81;5093732;28;20180;-77
2021/08/07 00:30:30;;;;;;;3.57;1.43;;;;;;;13.73;75.02;94891.50;5075301;28;20693;-77
2021/08/07 00:32:56;;;;;;;3.27;1.23;;;;;;;13.75;74.91;94884.28;5058418;28;20195;-77
2021/08/07 00:35:21;;;;;;;3.10;1.23;;;;;;;13.75;74.91;94886.88;5075218;28;20196;-77
2021/08/07 00:37:46;;;;;;;2.40;1.20;;;;;;;13.82;74.40;94893.00;5058597;28;20613;-77
2021/08/07 00:40:12;;;;;;;2.60;1.20;;;;;;;13.79;74.79;94889.97;5075395;28;20183;-77
2021/08/07 00:42:37;;;;;;;2.10;1.30;;;;;;;13.82;74.55;94889.56;5067236;28;20213;-77
2021/08/07 00:45:03;;;;;;;2.83;1.20;;;;;;;13.82;74.68;94885.16;5054914;28;20184;-77
2021/08/07 00:47:29;;;;;;;2.47;1.33;;;;;;;13.83;74.75;94891.19;5054928;28;20558;-77
2021/08/07 00:49:54;;;;;;;3.47;1.47;;;;;;;13.81;74.72;94886.16;5055012;28;20293;-77
2021/08/07 00:52:19;;;;;;;3.87;1.30;;;;;;;13.82;74.91;94884.34;5038327;28;20303;-77
2021/08/07 00:54:45;;;;;;;2.33;1.10;;;;;;;13.84;75.25;94882.38;5054069;28;20200;-77
2021/08/07 00:57:10;;;;;;;2.10;1.00;;;;;;;13.84;75.11;94883.19;5054492;28;20199;-77
2021/08/07 00:59:35;;;;;;;3.00;1.30;;;;;;;13.83;75.05;94875.53;5037866;28;20551;-77
2021/08/07 01:02:03;;;;;;;1.47;1.23;;;;;;;13.90;75.14;94881.66;5054089;28;20649;-77
2021/08/07 01:04:34;;;;;;;2.07;1.10;;;;;;;13.87;75.20;94877.59;5054786;28;20181;-77
2021/08/07 01:07:28;;;;;;;5.10;1.40;;;;;;;13.84;75.03;94875.34;5055031;28;20204;-77
2021/08/07 01:10:24;;;;;;;3.83;1.17;;;;;;;13.82;75.33;94864.28;5072546;28;20197;-77
2021/08/07 01:13:10;;;;;;;1.70;1.27;;;;;;;13.83;75.12;94850.25;5054356;28;20185;-77
2021/08/07 01:15:38;;;;;;;3.97;1.30;;;;;;;13.76;75.22;94849.34;5054823;28;20284;-77
2021/08/07 01:18:05;;;;;;;5.90;1.30;;;;;;;13.73;75.62;94854.97;5054523;28;20268;-78
2021/08/07 01:20:35;;;;;;;3.67;1.70;;;;;;;13.76;75.39;94861.59;5054796;28;20590;-77
2021/08/07 01:23:10;;;;;;;2.47;1.10;;;;;;;13.71;75.96;94856.13;5054474;28;20192;-77
2021/08/07 01:25:57;;;;;;;4.17;1.53;;;;;;;13.71;76.01;94858.75;5055057;28;20699;-77
2021/08/07 01:28:24;;;;;;;2.93;1.23;;;;;;;13.72;75.86;94857.75;5072396;28;20169;-77
2021/08/07 01:30:52;;;;;;;5.43;1.30;;;;;;;13.75;75.91;94858.19;5054268;28;20633;-77
2021/08/07 01:33:19;;;;;;;2.73;1.40;;;;;;;13.77;75.72;94848.38;5072226;28;20178;-77
2021/08/07 01:35:45;;;;;;;2.87;1.27;;;;;;;13.78;76.00;94859.59;5037793;28;20612;-77
2021/08/07 01:38:10;;;;;;;2.97;1.37;;;;;;;13.87;75.59;94846.28;5037915;28;20189;-77
2021/08/07 01:40:36;;;;;;;2.67;1.03;;;;;;;13.87;75.41;94837.66;5054355;28;20256;-77
2021/08/07 01:43:01;;;;;;;5.57;1.40;;;;;;;13.95;75.29;94840.13;5037649;28;20181;-77
2021/08/07 01:45:26;;;;;;;2.33;1.10;;;;;;;13.91;75.28;94844.09;5054464;28;20757;-77
2021/08/07 01:48:02;;;;;;;2.43;1.23;;;;;;;14.01;75.00;94844.59;5037886;28;20200;-77
2021/08/07 01:50:37;;;;;;;1.70;1.20;;;;;;;14.08;74.35;94836.84;5037696;28;20698;-77
2021/08/07 01:53:08;;;;;;;2.10;1.30;;;;;;;14.11;74.35;94839.06;5054428;28;20181;-77
2021/08/07 01:55:49;;;;;;;2.43;1.07;;;;;;;14.15;74.38;94842.94;5037630;28;20216;-77
2021/08/07 01:58:27;;;;;;;3.50;1.13;;;;;;;14.20;74.29;94837.16;5054414;28;20223;-77
2021/08/07 02:00:53;;;;;;;2.10;1.40;;;;;;;14.25;73.96;94837.41;5037917;28;20310;-77
2021/08/07 02:03:19;;;;;;;2.70;1.30;;;;;;;14.24;74.04;94844.44;5037444;28;20185;-77
2021/08/07 02:05:47;;;;;;;2.07;1.27;;;;;;;14.20;74.11;94837.97;5054124;28;20204;-77
2021/08/07 02:08:14;;;;;;;5.17;1.30;;;;;;;14.16;74.22;94836.72;5076568;28;20174;-77
2021/08/07 02:10:47;;;;;;;3.13;1.80;;;;;;;14.21;74.08;94836.16;5041600;28;20589;-77
2021/08/07 02:13:13;;;;;;;2.27;1.13;;;;;;;14.21;74.08;94825.72;5058127;28;20181;-77
2021/08/07 02:15:38;;;;;;;2.73;1.27;;;;;;;14.13;74.14;94826.63;5058555;28;20204;-77
2021/08/07 02:18:04;;;;;;;3.70;1.47;;;;;;;14.07;74.08;94827.41;5058160;28;20181;-77
2021/08/07 02:20:29;;;;;;;2.63;1.30;;;;;;;14.05;74.34;94816.34;5075897;28;20181;-77
2021/08/07 02:22:55;;;;;;;2.63;1.30;;;;;;;14.07;74.29;94822.19;5058068;28;20189;-77
2021/08/07 02:25:21;;;;;;;3.40;1.20;;;;;;;14.07;74.51;94822.19;5041250;28;20336;-77
2021/08/07 02:27:47;;;;;;;3.03;1.60;;;;;;;14.10;74.40;94817.38;5057995;28;20235;-77
2021/08/07 02:30:13;;;;;;;2.13;1.10;;;;;;;14.11;74.40;94810.34;5057664;28;20204;-78
2021/08/07 02:32:38;;;;;;;5.67;1.67;;;;;;;14.15;74.22;94817.66;5040717;28;20181;-77
2021/08/07 02:35:09;;;;;;;1.83;1.30;;;;;;;14.14;74.01;94810.00;5057626;28;20177;-77
2021/08/07 02:37:35;;;;;;;3.60;1.30;;;;;;;14.13;74.14;94805.75;5057667;28;20202;-77
2021/08/07 02:40:01;;;;;;;3.93;1.03;;;;;;;14.06;74.63;94802.28;5040816;28;20177;-77
2021/08/07 02:42:27;;;;;;;3.53;1.57;;;;;;;14.09;74.57;94801.91;5057305;28;20181;-77
2021/08/07 02:44:53;;;;;;;5.43;1.33;;;;;;;14.08;74.38;94795.09;5057513;28;20202;-77
2021/08/07 02:47:19;;;;;;;3.37;1.50;;;;;;;14.08;74.27;94802.91;5057265;28;20181;-77
2021/08/07 02:49:45;;;;;;;2.33;1.40;;;;;;;14.10;74.20;94804.34;5057311;28;20286;-77
2021/08/07 02:52:10;;;;;;;3.63;1.37;;;;;;;14.09;74.49;94805.31;5040550;28;20205;-77
2021/08/07 02:54:36;;;;;;;6.23;1.50;;;;;;;14.12;74.46;94799.72;5057433;28;20818;-77
2021/08/07 02:57:02;;;;;;;4.27;1.40;;;;;;;14.16;74.08;94795.75;5064230;28;20262;-77
2021/08/07 02:59:28;;;;;;;1.87;1.20;;;;;;;14.13;73.96;94796.16;5040939;28;20193;-77
2021/08/07 03:01:53;;;;;;;2.23;1.03;;;;;;;14.15;74.07;94790.72;5056623;28;20269;-77
2021/08/07 03:04:19;;;;;;;2.80;1.30;;;;;;;14.13;73.96;94792.69;5074948;28;20184;-77
2021/08/07 03:06:44;;;;;;;6.20;2.25;;;;;;;14.18;73.84;94787.72;5057295;28;20288;-77
2021/08/07 03:09:10;;;;;;;5.27;1.33;;;;;;;14.17;73.68;94789.53;5075141;28;20207;-77
2021/08/07 03:11:36;;;;;;;3.93;1.37;;;;;;;14.18;73.70;94782.50;5040765;28;20189;-77
2021/08/07 03:14:01;;;;;;;3.30;1.50;;;;;;;14.20;73.65;94782.31;5075077;28;20180;-77
2021/08/07 03:16:27;;;;;;;1.77;1.40;;;;;;;14.18;73.68;94779.91;5057061;28;20193;-77
2021/08/07 03:18:53;;;;;;;1.50;1.40;;;;;;;14.20;73.33;94783.13;5056136;28;20173;-77
2021/08/07 03:21:18;;;;;;;2.60;1.30;;;;;;;14.21;73.13;94784.72;5040483;28;20187;-77
2021/08/07 03:23:43;;;;;;;2.30;1.43;;;;;;;14.20;73.11;94793.56;5074714;28;20177;-77
2021/08/07 03:26:10;;;;;;;3.10;1.40;;;;;;;14.25;73.17;94787.78;5040189;28;20204;-77
2021/08/07 03:28:35;;;;;;;3.90;1.20;;;;;;;14.19;73.36;94771.06;5040287;28;20188;-77
2021/08/07 03:31:00;;;;;;;2.40;1.30;;;;;;;14.20;73.23;94775.28;5056509;28;20217;-77
2021/08/07 03:33:26;;;;;;;5.57;1.80;;;;;;;14.11;73.72;94766.78;5056501;28;20181;-77
2021/08/07 03:35:51;;;;;;;4.13;1.23;;;;;;;14.12;73.59;94767.59;5056703;28;20557;-78
2021/08/07 03:38:16;;;;;;;2.23;1.33;;;;;;;14.09;73.54;94760.94;5056719;28;20652;-77
2021/08/07 03:40:42;;;;;;;3.83;1.30;;;;;;;14.10;73.59;94770.38;5056650;28;20173;-77
2021/08/07 03:43:07;;;;;;;2.83;1.13;;;;;;;14.05;73.67;94769.34;5055912;28;20178;-77
2021/08/07 03:45:32;;;;;;;3.33;1.30;;;;;;;14.11;73.53;94768.59;5056519;28;20320;-77
2021/08/07 03:47:58;;;;;;;2.88;1.30;;;;;;;14.02;73.63;94778.34;5039938;28;20711;-77
2021/08/07 03:50:23;;;;;;;3.17;1.67;;;;;;;14.02;73.59;94775.75;5039765;28;20213;-77
2021/08/07 03:52:49;;;;;;;3.57;1.40;;;;;;;14.10;73.55;94767.78;5056473;28;20239;-78
2021/08/07 03:55:14;;;;;;;3.23;1.10;;;;;;;14.09;73.45;94765.38;5056208;28;20212;-77
2021/08/07 03:57:53;;;;;;;2.50;1.73;;;;;;;14.13;73.28;94769.19;5056191;28;20227;-77
2021/08/07 04:00:19;;;;;;;3.43;1.43;;;;;;;14.12;73.06;94764.97;5056415;28;20169;-76
2021/08/07 04:02:44;;;;;;;7.27;1.40;;;;;;;14.06;73.26;94755.31;5055981;28;20207;-78
2021/08/07 04:05:10;;;;;;;4.90;1.50;;;;;;;14.12;72.87;94754.53;5056153;28;20197;-78
2021/08/07 04:07:35;;;;;;;2.87;1.17;;;;;;;14.13;73.02;94756.97;5056188;28;20207;-77
2021/08/07 04:10:01;;;;;;;2.73;1.50;;;;;;;14.09;72.99;94760.94;5056038;28;20266;-77
2021/08/07 04:12:26;;;;;;;2.67;1.30;;;;;;;14.05;72.99;94757.13;5055897;28;20192;-77
2021/08/07 04:14:52;;;;;;;2.60;1.20;;;;;;;14.05;73.07;94754.50;5073732;28;20177;-77
2021/08/07 04:17:17;;;;;;;3.73;1.50;;;;;;;14.05;73.29;94749.28;5073711;28;20209;-78
2021/08/07 04:19:42;;;;;;;1.77;1.33;;;;;;;14.10;72.65;94752.13;5039330;28;20234;-77
2021/08/07 04:22:07;;;;;;;1.43;1.20;;;;;;;14.12;73.02;94749.31;5056105;28;20189;-77
2021/08/07 04:24:33;;;;;;;3.33;1.15;;;;;;;14.12;72.88;94749.31;5055388;28;20185;-77
2021/08/07 04:26:58;;;;;;;4.77;1.50;;;;;;;14.11;72.90;94742.47;5055549;28;20668;-77
2021/08/07 04:29:23;;;;;;;4.70;1.27;;;;;;;14.12;72.50;94746.69;5073169;28;20207;-78
2021/08/07 04:31:49;;;;;;;4.00;1.27;;;;;;;14.10;72.76;94739.06;5055418;28;20185;-77
2021/08/07 04:34:14;;;;;;;4.73;1.40;;;;;;;14.06;72.50;94732.63;5073078;28;20231;-77
2021/08/07 04:36:39;;;;;;;2.23;1.17;;;;;;;14.04;72.59;94737.19;5055284;28;20220;-77
2021/08/07 04:39:05;;;;;;;4.65;1.58;;;;;;;14.03;72.87;94743.41;5055229;28;20258;-77
2021/08/07 04:41:30;;;;;;;1.97;1.23;;;;;;;14.10;72.52;94748.69;5073168;28;20189;-77
2021/08/07 04:43:55;;;;;;;5.87;1.73;;;;;;;14.15;72.21;94754.97;5055480;28;20181;-77
2021/08/07 04:46:21;;;;;;;2.03;1.30;;;;;;;14.18;72.14;94746.75;5038385;28;20650;-77
2021/08/07 04:48:46;;;;;;;3.60;1.40;;;;;;;14.30;71.79;94762.72;5054963;28;20649;-77
2021/08/07 04:51:11;;;;;;;2.27;1.23;;;;;;;14.33;71.71;94774.59;5055140;28;20187;-77
2021/08/07 04:53:37;;;;;;;1.20;0.90;;;;;;;14.44;71.13;94774.06;5072919;28;20199;-77
2021/08/07 04:56:02;;;;;;;3.93;1.30;;;;;;;14.52;71.04;94778.38;5054924;28;20245;-78
2021/08/07 04:58:27;;;;;;;4.50;1.50;;;;;;;14.56;70.92;94774.38;5055232;28;20268;-77
2021/08/07 05:00:53;;;;;;;3.67;1.63;;;;;;;14.55;70.54;94776.19;5055217;28;20173;-77
2021/08/07 05:03:18;;;;;;;1.97;1.13;;;;;;;14.53;70.06;94761.72;5072662;28;20183;-77
2021/08/07 05:05:43;;;;;;;2.37;1.43;;;;;;;14.57;70.51;94760.31;5072533;28;20208;-77
2021/08/07 05:08:09;;;;;;;2.90;1.40;;;;;;;14.64;70.00;94748.09;5054810;28;20227;-78
2021/08/07 05:10:34;;;;;;;2.90;1.10;;;;;;;14.68;70.14;94739.72;5038817;28;20205;-77
2021/08/07 05:12:59;;;;;;;2.83;1.10;;;;;;;14.77;69.38;94740.38;5039991;28;20189;-78
2021/08/07 05:15:25;;;;;;;3.17;1.30;;;;;;;14.71;69.89;94728.88;5057767;28;20760;-78
2021/08/07 05:17:50;;;;;;;2.80;1.40;;;;;;;14.85;69.36;94729.75;5055889;28;20272;-78
2021/08/07 05:20:15;;;;;;;2.37;1.30;;;;;;;15.00;68.71;94740.88;5056044;28;20169;-78
2021/08/07 05:22:41;;;;;;;4.23;1.30;;;;;;;15.12;67.43;94738.53;5038901;28;20177;-78
2021/08/07 05:25:06;;;;;;;2.55;1.30;;;;;;;15.12;66.43;94741.13;5055996;28;20232;-79
2021/08/07 05:27:32;;;;;;;2.95;1.30;;;;;;;15.13;66.12;94752.41;5055777;28;20184;-79
2021/08/07 05:29:57;;;;;;;2.38;1.33;;;;;;;15.16;66.33;94752.81;5039048;28;20623;-79
2021/08/07 05:32:22;;;;;;;2.15;1.17;;;;;;;15.16;66.13;94742.34;5038956;28;20212;-79
2021/08/07 05:34:48;;;;;;;3.45;1.42;;;;;;;15.27;66.17;94735.75;5073222;28;20177;-77
2021/08/07 05:37:13;;;;;;;2.88;1.38;;;;;;;15.40;65.28;94735.78;5087543;28;20212;-78
2021/08/07 05:39:38;;;;;;;2.63;1.10;;;;;;;15.47;65.82;94730.59;5082423;28;20211;-79
2021/08/07 05:42:04;;;;;;;1.80;1.08;;;;;;;15.65;65.14;94740.53;5096340;28;20184;-76
2021/08/07 05:44:29;;;;;;;3.03;1.30;;;;;;;15.86;64.34;94740.34;5096511;28;20188;-76
2021/08/07 05:46:55;;;;;;;2.67;1.30;;;;;;;16.02;64.00;94757.50;5097469;28;20196;-77
2021/08/07 05:49:20;;;;;;;2.85;1.45;;;;;;;16.30;62.10;94759.94;5079410;28;20200;-77
2021/08/07 05:51:45;;;;;;;2.38;1.10;;;;;;;16.42;62.11;94771.41;5097988;28;20183;-77
2021/08/07 05:54:11;;;;;;;2.85;1.23;;;;;;;16.26;62.69;94762.16;5079714;28;20168;-77
2021/08/07 05:56:36;;;;;;;1.90;1.10;;;;;;;16.28;63.09;94757.50;5098776;28;20203;-76
2021/08/07 05:59:01;;;;;;;3.97;1.20;;;;;;;16.20;63.71;94765.56;5086523;28;20161;-75
2021/08/07 06:01:27;;;;;;;1.80;1.00;;;;;;;16.20;63.64;94755.09;5120894;28;20177;-75
2021/08/07 06:03:52;;;;;;;2.83;1.20;;;;;;;16.29;63.82;94747.84;5084519;28;20196;-77
2021/08/07 06:06:17;;;;;;;2.38;1.30;;;;;;;17.04;62.24;94754.38;5078066;28;20201;-77
2021/08/07 06:08:43;;;;;;;2.17;1.13;;;;;;;17.23;61.26;94766.66;5078152;28;20195;-77
2021/08/07 06:11:08;;;;;;;2.33;1.35;;;;;;;17.23;61.01;94763.22;5078237;28;20232;-78
2021/08/07 06:13:33;;;;;;;3.08;1.38;;;;;;;17.17;61.68;94756.97;5078290;28;20631;-80
2021/08/07 06:15:59;;;;;;;2.60;1.40;;;;;;;17.14;62.02;94760.03;5079420;28;20192;-80
2021/08/07 06:18:24;;;;;;;5.40;1.77;;;;;;;17.78;59.99;94743.41;5083470;28;20187;-80
2021/08/07 06:20:50;;;;;;;3.05;1.40;;;;;;;18.89;57.03;94741.91;5070182;28;20161;-80
2021/08/07 06:23:16;;;;;;;4.38;1.38;;;;;;;19.80;54.29;94738.41;5078442;28;20184;-80
2021/08/07 06:25:41;;;;;;;2.10;1.40;;;;;;;20.58;51.25;94738.25;5077854;28;20552;-76
2021/08/07 06:28:06;;;;;;;5.65;1.67;;;;;;;21.12;50.10;94738.09;5077041;28;20180;-75
2021/08/07 06:30:32;;;;;;;2.38;1.15;;;;;;;22.19;47.32;94740.94;5076495;28;20681;-76
2021/08/07 06:32:57;;;;;;;3.00;1.20;;;;;;;23.12;43.47;94728.03;5076396;28;20191;-76
2021/08/07 06:35:23;;;;;;;2.92;1.20;;;;;;;23.63;42.29;94734.00;5076532;28;20287;-76
2021/08/07 06:37:49;;;;;;;1.50;1.02;;;;;;;23.63;43.20;94731.34;5076772;28;20164;-76
2021/08/07 06:40:15;;;;;;;5.00;2.53;;;;;;;24.32;40.95;94728.84;5076571;28;20192;-76
2021/08/07 06:42:40;;;;;;;2.35;1.15;;;;;;;25.63;38.88;94727.25;5076367;28;20255;-76
2021/08/07 06:45:06;;;;;;;1.63;0.90;;;;;;;25.43;38.46;94723.44;5078164;28;20200;-76
2021/08/07 06:47:32;;;;;;;1.80;1.10;;;;;;;24.65;40.18;94726.97;5076486;28;20176;-76
2021/08/07 06:49:57;;;;;;;2.30;1.10;;;;;;;24.32;40.37;94736.81;5094383;28;20204;-76
2021/08/07 06:52:22;;;;;;;4.57;1.33;;;;;;;25.79;39.13;94741.38;5094232;28;20595;-76
2021/08/07 06:54:48;;;;;;;3.92;1.30;;;;;;;25.98;38.10;94739.88;5094248;28;20198;-75
2021/08/07 06:57:15;;;;;;;3.88;2.03;;;;;;;24.97;40.15;94738.31;5059928;28;20259;-77
2021/08/07 06:59:42;;;;;;;4.32;1.52;;;;;;;25.04;39.58;94735.47;5076988;28;20236;-78
2021/08/07 07:02:07;;;;;;;1.80;1.35;;;;;;;25.02;39.98;94727.78;5076865;28;20173;-78
2021/08/07 07:04:34;;;;;;;3.50;1.10;;;;;;;25.62;38.61;94741.56;5062062;28;20187;-77
2021/08/07 07:06:59;;;;;;;2.20;1.13;;;;;;;24.32;41.69;94730.72;5060855;28;20722;-78
2021/08/07 07:09:24;;;;;;;1.95;1.00;;;;;;;23.24;43.03;94743.84;5095228;28;20208;-78
2021/08/07 07:11:50;;;;;;;3.30;0.98;;;;;;;22.65;45.52;94749.59;5077262;28;20176;-78
2021/08/07 07:14:16;;;;;;;3.05;1.00;;;;;;;22.38;46.06;94761.88;5077203;28;20218;-78
2021/08/07 07:16:41;;;;;;;1.42;0.82;;;;;;;21.77;47.49;94765.03;5077281;28;20200;-78
2021/08/07 07:19:07;;;;;;;5.15;1.17;;;;;;;21.41;48.63;94768.81;5076916;28;20589;-76
2021/08/07 07:21:32;;;;;;;2.38;1.20;;;;;;;21.15;50.04;94779.84;5067623;28;20246;-78
2021/08/07 07:23:58;;;;;;;1.45;0.98;;;;;;;20.27;52.37;94772.78;5056226;28;20177;-78
2021/08/07 07:26:27;;;;;;;3.50;1.33;;;;;;;20.18;53.10;94768.88;5073920;28;20193;-79
2021/08/07 07:28:52;;;;;;;5.65;1.10;;;;;;;19.90;53.99;94770.28;5080708;28;20180;-81
2021/08/07 07:31:17;;;;;;;2.97;1.17;;;;;;;19.77;54.32;94765.19;5066613;28;20184;-83
2021/08/07 07:33:43;;;;;;;2.22;1.20;;;;;;;19.37;56.14;94760.41;5076865;28;20180;-78
2021/08/07 07:36:08;;;;;;;4.68;1.35;;;;;;;19.43;57.13;94758.69;5078831;28;20206;-78
2021/08/07 07:38:33;;;;;;;3.13;1.50;;;;;;;19.83;55.12;94743.22;5079035;28;20797;-77
2021/08/07 07:40:59;;;;;;;2.78;1.73;;;;;;;20.04;55.37;94747.97;5095233;28;20218;-77
2021/08/07 07:43:25;;;;;;;2.20;1.60;;;;;;;20.02;55.63;94734.22;5094499;28;20231;-77
2021/08/07 07:45:51;;;;;;;3.22;1.48;;;;;;;20.71;54.29;94724.00;5095630;28;20203;-77
2021/08/07 07:48:16;;;;;;;2.75;1.30;;;;;;;21.43;52.12;94721.03;5113204;28;20180;-78
2021/08/07 07:50:41;;;;;;;2.25;1.13;;;;;;;21.48;51.82;94721.16;5095308;28;20294;-77
2021/08/07 07:53:07;;;;;;;2.08;1.27;;;;;;;21.92;50.98;94716.13;5078069;28;20317;-78
2021/08/07 07:55:32;;;;;;;4.78;1.30;;;;;;;21.94;51.72;94716.69;5095262;28;20252;-78
2021/08/07 07:57:58;;;;;;;2.28;1.30;;;;;;;22.00;50.60;94708.63;5095701;28;20164;-77
2021/08/07 08:00:24;;;;;;;3.20;1.63;;;;;;;22.31;49.28;94711.78;5096271;28;20209;-78
2021/08/07 08:02:51;;;;;;;3.78;1.27;;;;;;;21.84;50.17;94711.22;5113788;28;20168;-78
2021/08/07 08:05:16;;;;;;;3.67;1.17;;;;;;;21.35;51.84;94705.56;5095416;28;20664;-78
2021/08/07 08:07:42;;;;;;;2.70;1.50;;;;;;;21.68;50.73;94700.38;5113735;28;20268;-76
2021/08/07 08:10:08;;;;;;;2.08;1.33;;;;;;;21.61;50.38;94706.84;5078530;28;20252;-77
2021/08/07 08:12:33;;;;;;;3.22;1.42;;;;;;;21.31;51.49;94726.34;5095082;28;20574;-77
2021/08/07 08:14:58;;;;;;;2.03;1.15;;;;;;;20.99;51.89;94720.66;5078452;28;20224;-78
2021/08/07 08:17:23;;;;;;;4.32;1.40;;;;;;;21.05;51.32;94726.84;5113706;28;20249;-77
2021/08/07 08:19:49;;;;;;;4.85;1.20;;;;;;;20.53;52.87;94724.13;5095650;28;20613;-76
2021/08/07 08:22:14;;;;;;;2.88;1.30;;;;;;;20.64;53.60;94710.13;5113205;28;20632;-78
2021/08/07 08:24:39;;;;;;;3.03;1.30;;;;;;;20.37;53.55;94707.13;5095121;28;20171;-78
2021/08/07 08:27:05;;;;;;;1.85;1.17;;;;;;;20.61;54.05;94716.66;5095080;28;20196;-77
2021/08/07 08:29:30;;;;;;;3.65;1.20;;;;;;;20.83;52.95;94708.16;5113214;28;20600;-76
2021/08/07 08:31:55;;;;;;;5.10;1.38;;;;;;;21.18;51.83;94708.91;5094654;28;20171;-78
2021/08/07 08:34:21;;;;;;;5.55;1.17;;;;;;;21.24;51.99;94707.16;5094741;28;20214;-77
2021/08/07 08:36:46;;;;;;;5.75;1.42;;;;;;;21.18;51.88;94711.53;5094879;28;20192;-78
2021/08/07 08:39:11;;;;;;;7.32;2.10;;;;;;;21.03;51.96;94713.09;5113142;28;20191;-78
2021/08/07 08:41:37;;;;;;;2.95;1.80;;;;;;;21.36;51.79;94705.31;5112531;28;20623;-77
2021/08/07 08:44:03;;;;;;;2.72;1.23;;;;;;;21.32;50.25;94695.47;5094856;28;20224;-77
2021/08/07 08:46:29;;;;;;;3.67;1.58;;;;;;;21.59;50.30;94696.50;5077691;28;20219;-78
2021/08/07 08:48:55;;;;;;;2.17;1.30;;;;;;;20.83;50.47;94698.41;5094280;28;20172;-77
2021/08/07 08:51:25;;;;;;;1.90;1.30;;;;;;;20.74;51.21;94694.50;5094295;28;20298;-78
2021/08/07 08:53:51;;;;;;;1.42;1.17;;;;;;;20.74;51.70;94704.25;5095281;28;20176;-77
2021/08/07 08:56:17;;;;;;;3.00;1.42;;;;;;;20.61;52.33;94711.41;5094724;28;20244;-78
2021/08/07 08:58:42;;;;;;;4.03;1.40;;;;;;;20.33;52.96;94708.63;5094576;28;20175;-77
2021/08/07 09:01:08;;;;;;;2.53;1.45;;;;;;;20.17;53.03;94709.28;5094494;28;20179;-78
2021/08/07 09:03:34;;;;;;;2.15;1.50;;;;;;;20.08;54.25;94700.91;5096217;28;20172;-78
2021/08/07 09:05:59;;;;;;;3.55;1.48;;;;;;;20.37;53.62;94707.13;5078023;28;20689;-76
2021/08/07 09:08:24;;;;;;;2.33;1.30;;;;;;;20.34;53.97;94702.31;5094982;28;20297;-78
2021/08/07 09:11:22;;;;;;;4.35;1.40;;;;;;;20.29;54.55;94704.81;5077618;28;20199;-76
2021/08/07 09:13:47;;;;;;;4.43;2.30;;;;;;;20.13;55.40;94708.09;5112390;28;20203;-77
2021/08/07 09:16:14;;;;;;;3.08;1.60;;;;;;;20.18;55.07;94705.59;5093406;28;20230;-79
2021/08/07 09:18:40;;;;;;;4.50;1.15;;;;;;;20.14;55.28;94705.25;5094355;28;20259;-77
2021/08/07 09:21:16;;;;;;;3.83;1.60;;;;;;;20.22;54.60;94702.28;5112692;28;20303;-78
2021/08/07 09:23:42;;;;;;;2.40;1.30;;;;;;;20.11;55.43;94707.53;5094114;28;20195;-77
2021/08/07 09:26:13;;;;;;;2.30;1.45;;;;;;;20.11;55.92;94699.63;5094181;28;20588;-78
2021/08/07 09:28:53;;;;;;;3.67;1.40;;;;;;;20.19;55.44;94702.75;5093986;28;20176;-78
2021/08/07 09:31:19;;;;;;;5.80;1.65;;;;;;;20.23;55.08;94698.63;5093923;28;20283;-77
2021/08/07 09:33:45;;;;;;;3.47;1.58;;;;;;;19.83;55.90;94697.63;5077080;28;20665;-77
2021/08/07 09:36:10;;;;;;;3.85;1.55;;;;;;;19.65;55.59;94703.75;5077008;28;20286;-77
2021/08/07 09:38:42;;;;;;;3.92;1.77;;;;;;;19.55;55.98;94714.00;5094273;28;20206;-78
2021/08/07 09:41:08;;;;;;;4.13;1.48;;;;;;;19.52;56.44;94717.88;5094080;28;20599;-78
2021/08/07 09:43:40;;;;;;;3.97;1.83;;;;;;;19.36;58.29;94729.84;5077020;28;20219;-77
2021/08/07 09:46:10;;;;;;;4.18;1.65;;;;;;;19.21;57.44;94732.03;5069427;28;20196;-78
2021/08/07 09:48:44;;;;;;;3.90;1.30;;;;;;;19.29;58.46;94737.00;5093432;28;20615;-78
2021/08/07 09:51:17;;;;;;;2.85;1.55;;;;;;;19.16;57.92;94730.06;5076691;28;20290;-76
2021/08/07 09:53:43;;;;;;;3.42;1.10;;;;;;;19.38;57.49;94727.78;5077055;28;20172;-75
2021/08/07 09:56:09;;;;;;;4.57;1.75;;;;;;;19.49;56.80;94726.22;5093676;28;20210;-77
2021/08/07 09:58:34;;;;;;;3.05;1.40;;;;;;;19.45;57.03;94730.34;5112772;28;20172;-78
2021/08/07 10:01:00;;;;;;;3.45;1.60;;;;;;;19.12;57.97;94730.72;5077695;28;20179;-77
2021/08/07 10:03:30;;;;;;;3.55;1.45;;;;;;;19.32;57.86;94720.75;5077625;28;20240;-77
2021/08/07 10:05:56;;;;;;;5.38;1.60;;;;;;;19.17;58.99;94725.59;5095096;28;20188;-78
2021/08/07 10:08:22;;;;;;;3.38;1.65;;;;;;;19.23;58.77;94730.78;5094858;28;20167;-77
2021/08/07 10:10:50;;;;;;;4.65;1.67;;;;;;;19.11;58.94;94721.22;5095121;28;20697;-78
2021/08/07 10:13:16;;;;;;;3.33;1.50;;;;;;;19.10;60.59;94712.53;5094743;28;20172;-77
2021/08/07 10:15:42;;;;;;;6.82;1.75;;;;;;;19.19;61.45;94697.25;5095143;28;20200;-77
2021/08/07 10:18:07;;;;;;;1.60;1.42;;;;;;;18.94;62.40;94702.59;5077001;28;20228;-76
2021/08/07 10:20:34;;;;;;;3.33;1.58;;;;;;;18.98;62.90;94700.31;5111971;28;20229;-77
2021/08/07 10:23:00;;;;;;;2.40;1.60;;;;;;;18.91;63.52;94698.59;5093176;28;20199;-75
2021/08/07 10:25:26;;;;;;;3.38;1.63;;;;;;;18.92;63.51;94686.22;5093722;28;20194;-77
2021/08/07 10:27:56;;;;;;;3.45;1.63;;;;;;;18.90;64.28;94675.09;5079134;28;20179;-77
2021/08/07 10:30:22;;;;;;;4.30;1.90;;;;;;;18.70;65.58;94664.81;5088101;28;20208;-77
2021/08/07 10:32:47;;;;;;;3.38;1.70;;;;;;;18.59;66.34;94662.88;5076320;28;20177;-77
2021/08/07 10:35:14;;;;;;;4.78;1.88;;;;;;;18.35;68.03;94682.94;5076505;28;20725;-77
2021/08/07 10:37:40;;;;;;;2.85;1.80;;;;;;;18.39;68.64;94684.13;5073778;28;20180;-77
2021/08/07 10:40:08;;;;;;;3.00;1.80;;;;;;;18.18;69.57;94684.50;5060117;28;20181;-76
2021/08/07 10:42:34;;;;;;;5.18;2.15;;;;;;;17.82;71.02;94680.75;5055625;28;20663;-76
2021/08/07 10:45:02;;;;;;;3.78;1.98;;;;;;;17.89;71.11;94685.94;5040434;28;20177;-75
2021/08/07 10:47:38;;;;;;;5.40;2.25;;;;;;;17.59;72.44;94680.47;5076184;28;20697;-75
2021/08/07 10:50:24;;;;;;;4.40;1.90;;;;;;;17.57;73.28;94688.53;5076340;28;20200;-74
2021/08/07 10:52:49;;;;;;;4.25;1.67;;;;;;;17.31;74.62;94707.06;5052009;28;20283;-74
2021/08/07 10:55:45;;;;;;;5.70;1.90;;;;;;;17.20;76.31;94700.66;5059345;28;20308;-75
2021/08/07 10:58:33;;;;;;;4.15;1.85;;;;;;;17.30;76.67;94708.88;5059160;28;20672;-76
2021/08/07 11:01:24;;;;;;;5.28;2.20;;;;;;;17.15;77.49;94706.53;5083662;28;20180;-75
2021/08/07 11:04:02;;;;;;;3.90;2.60;;;;;;;17.01;78.77;94704.16;5113656;28;20164;-76
2021/08/07 11:06:46;;;;;;;4.25;2.45;;;;;;;17.00;78.82;94708.63;5114721;28;20745;-76
2021/08/07 11:09:30;;;;;;;4.45;2.05;;;;;;;16.82;79.49;94697.97;5096170;28;20176;-76
2021/08/07 11:12:11;;;;;;;3.10;2.03;;;;;;;17.02;79.15;94703.97;5095962;28;20179;-76
2021/08/07 11:14:39;;;;;;;4.00;1.95;;;;;;;17.10;77.84;94681.94;5114513;28;20179;-76
2021/08/07 11:17:04;;;;;;;2.63;1.92;;;;;;;16.77;78.97;94688.09;5096122;28;20286;-76
2021/08/07 11:19:59;;;;;;;6.13;2.03;;;;;;;16.58;79.22;94681.06;5114448;28;20247;-76
2021/08/07 11:22:44;;;;;;;4.10;2.10;;;;;;;16.75;78.99;94684.88;5114134;28;20244;-76
2021/08/07 11:25:16;;;;;;;4.50;2.08;;;;;;;16.84;78.45;94682.84;5096133;28;20203;-75
2021/08/07 11:27:45;;;;;;;4.13;2.08;;;;;;;16.82;79.12;94690.91;5096009;28;20171;-74
2021/08/07 11:30:20;;;;;;;6.10;2.45;;;;;;;16.90;80.04;94688.06;5095864;28;20203;-75
2021/08/07 11:32:58;;;;;;;3.47;2.40;;;;;;;17.22;78.94;94685.50;5095751;28;20662;-76
2021/08/07 11:35:36;;;;;;;4.20;2.20;;;;;;;17.25;79.88;94687.72;5114116;28;20716;-76